createdAt,value
2019-05-25T00:00:15.065Z,41.3
2019-05-25T00:03:15.245Z,42.4
2019-05-25T00:06:15.729Z,41.6
2019-05-25T00:09:15.040Z,42.1
2019-05-25T00:12:15.271Z,42.2
2019-05-25T00:15:15.800Z,41.6
2019-05-25T00:18:15.181Z,42.0
2019-05-25T00:21:15.682Z,42.4
2019-05-25T00:24:15.164Z,42.4
2019-05-25T00:27:14.864Z,43.1
2019-05-25T00:30:15.222Z,42.9
2019-05-25T00:33:15.434Z,42.8
2019-05-25T00:36:15.170Z,42.9
2019-05-25T00:39:15.482Z,43.6
2019-05-25T00:42:15.550Z,43.0
2019-05-25T00:45:15.769Z,42.8
2019-05-25T00:48:15.209Z,42.9
2019-05-25T00:51:15.372Z,43.4
2019-05-25T00:54:27.416Z,43.2
2019-05-25T00:57:16.443Z,43.7
2019-05-25T01:00:15.484Z,43.8
2019-05-25T01:03:15.545Z,44.0
2019-05-25T01:06:15.692Z,44.7
2019-05-25T01:09:14.849Z,44.1
2019-05-25T01:12:14.863Z,43.6
2019-05-25T01:15:15.229Z,44.1
2019-05-25T01:18:15.496Z,44.0
2019-05-25T01:21:14.923Z,44.1
2019-05-25T01:24:15.279Z,43.7
2019-05-25T01:27:15.743Z,43.9
2019-05-25T01:30:15.136Z,43.8
2019-05-25T01:33:15.504Z,44.0
2019-05-25T01:36:15.749Z,43.7
2019-05-25T01:39:15.015Z,44.0
2019-05-25T01:42:15.056Z,43.9
2019-05-25T01:45:15.527Z,43.9
2019-05-25T01:48:15.329Z,43.9
2019-05-25T01:51:15.609Z,44.3
2019-05-25T01:54:14.902Z,44.3
2019-05-25T01:57:15.511Z,44.2
2019-05-25T02:00:15.195Z,44.6
2019-05-25T02:03:15.715Z,44.5
2019-05-25T02:06:15.104Z,44.8
2019-05-25T02:09:15.698Z,44.9
2019-05-25T02:12:15.101Z,44.7
2019-05-25T02:15:15.445Z,44.7
2019-05-25T02:18:20.607Z,44.4
2019-05-25T02:21:15.764Z,44.9
2019-05-25T02:24:15.076Z,45.0
2019-05-25T02:27:15.186Z,44.5
2019-05-25T02:30:15.301Z,44.7
2019-05-25T02:33:15.649Z,44.8
2019-05-25T02:36:15.771Z,44.7
2019-05-25T02:39:14.926Z,44.7
2019-05-25T02:42:15.227Z,44.4
2019-05-25T02:45:15.411Z,44.5
2019-05-25T02:48:14.835Z,44.7
2019-05-25T02:51:15.159Z,45.3
2019-05-25T02:54:15.642Z,45.2
2019-05-25T02:57:14.924Z,45.4
2019-05-25T03:00:15.158Z,45.9
2019-05-25T03:06:15.086Z,45.7
2019-05-25T03:09:15.697Z,45.4
2019-05-25T03:12:15.490Z,45.3
2019-05-25T03:15:15.089Z,45.7
2019-05-25T03:18:15.511Z,45.0
2019-05-25T03:21:14.827Z,45.4
2019-05-25T03:24:15.097Z,45.8
2019-05-25T03:27:15.510Z,45.8
2019-05-25T03:30:15.683Z,45.9
2019-05-25T03:33:15.882Z,45.7
2019-05-25T03:36:15.519Z,45.9
2019-05-25T03:39:15.074Z,45.8
2019-05-25T03:42:15.343Z,45.9
2019-05-25T03:45:15.642Z,45.8
2019-05-25T03:48:15.002Z,46.1
2019-05-25T03:51:15.428Z,46.1
2019-05-25T03:54:15.557Z,45.7
2019-05-25T03:57:14.934Z,45.4
2019-05-25T04:00:15.256Z,45.5
2019-05-25T04:03:15.452Z,45.3
2019-05-25T04:06:14.813Z,45.6
2019-05-25T04:09:15.146Z,45.3
2019-05-25T04:12:15.420Z,45.0
2019-05-25T04:15:15.691Z,45.2
2019-05-25T04:18:15.380Z,44.9
2019-05-25T04:21:15.462Z,44.9
2019-05-25T04:24:14.919Z,44.6
2019-05-25T04:27:15.488Z,44.8
2019-05-25T04:30:14.904Z,44.9
2019-05-25T04:33:15.322Z,44.5
2019-05-25T04:36:15.914Z,44.8
2019-05-25T04:39:15.107Z,44.7
2019-05-25T04:42:15.387Z,44.2
2019-05-25T04:45:14.981Z,44.1
2019-05-25T04:48:15.222Z,43.5
2019-05-25T04:51:15.712Z,43.2
2019-05-25T04:54:14.974Z,42.3
2019-05-25T04:57:15.476Z,41.9
2019-05-25T05:00:15.901Z,40.9
2019-05-25T05:03:15.309Z,39.9
2019-05-25T05:06:14.844Z,39.3
2019-05-25T05:09:15.299Z,37.4
2019-05-25T05:12:15.602Z,35.9
2019-05-25T05:15:15.163Z,34.6
2019-05-25T05:18:15.528Z,32.9
2019-05-25T05:21:15.933Z,31.5
2019-05-25T05:24:15.254Z,31.4
2019-05-25T05:27:15.721Z,29.6
2019-05-25T05:30:15.803Z,29.3
2019-05-25T05:33:15.696Z,27.6
2019-05-25T05:36:15.591Z,26.6
2019-05-25T05:39:15.162Z,27.8
2019-05-25T05:42:15.044Z,27.7
2019-05-25T05:45:15.036Z,27.6
2019-05-25T05:48:15.648Z,28.4
2019-05-25T05:51:15.202Z,28.8
2019-05-25T05:54:15.251Z,30.1
2019-05-25T05:57:14.870Z,30.9
2019-05-25T06:00:15.317Z,30.8
2019-05-25T06:03:15.524Z,32.9
2019-05-25T06:06:14.974Z,32.3
2019-05-25T06:09:14.808Z,31.8
2019-05-25T06:12:15.212Z,32.3
2019-05-25T06:15:15.609Z,31.4
2019-05-25T06:18:15.077Z,29.0
2019-05-25T06:24:15.653Z,23.3
2019-05-25T06:39:17.846Z,16.0
2019-05-25T06:42:15.834Z,15.6
2019-05-25T06:45:15.124Z,15.6
2019-05-25T06:48:15.715Z,16.0
2019-05-25T06:51:15.478Z,15.7
2019-05-25T06:54:15.166Z,15.3
2019-05-25T06:57:15.924Z,15.2
2019-05-25T07:00:15.297Z,14.6
2019-05-25T07:03:16.210Z,13.6
2019-05-25T07:06:15.791Z,12.9
2019-05-25T07:09:15.728Z,13.0
2019-05-25T07:12:15.510Z,10.5
2019-05-25T07:15:15.412Z,11.9
2019-05-25T07:18:16.106Z,10.7
2019-05-25T07:21:16.218Z,9.3
2019-05-25T07:24:16.039Z,10.6
2019-05-25T07:27:16.160Z,10.4
2019-05-25T07:30:15.908Z,11.7
2019-05-25T07:33:15.781Z,9.2
2019-05-25T07:36:15.492Z,12.1
2019-05-25T07:39:16.219Z,11.7
2019-05-25T07:42:19.466Z,11.0
2019-05-25T07:45:16.342Z,11.5
2019-05-25T07:48:16.233Z,11.1
2019-05-25T07:51:15.964Z,11.0
2019-05-25T07:54:15.775Z,11.2
2019-05-25T07:57:15.833Z,12.3
2019-05-25T08:00:15.510Z,12.5
2019-05-25T08:03:16.152Z,13.1
2019-05-25T08:06:15.605Z,13.1
2019-05-25T08:09:15.341Z,13.3
2019-05-25T08:12:15.829Z,13.0
2019-05-25T08:15:15.597Z,12.5
2019-05-25T08:18:15.491Z,12.0
2019-05-25T08:21:16.072Z,11.2
2019-05-25T08:24:15.736Z,10.9
2019-05-25T08:27:15.946Z,10.8
2019-05-25T08:30:16.173Z,9.9
2019-05-25T08:33:15.744Z,9.2
2019-05-25T08:36:15.942Z,8.7
2019-05-25T08:39:16.063Z,8.0
2019-05-25T08:42:16.187Z,7.5
2019-05-25T08:45:15.921Z,7.0
2019-05-25T08:48:15.729Z,7.3
2019-05-25T08:51:16.251Z,6.2
2019-05-25T08:54:16.010Z,6.5
2019-05-25T08:57:18.563Z,7.0
2019-05-25T09:00:15.997Z,6.8
2019-05-25T09:03:15.885Z,7.7
2019-05-25T09:06:15.425Z,7.8
2019-05-25T09:09:16.143Z,8.1
2019-05-25T09:12:16.001Z,6.7
2019-05-25T09:15:15.612Z,9.3
2019-05-25T09:18:16.314Z,10.1
2019-05-25T09:21:15.875Z,9.8
2019-05-25T09:24:15.481Z,10.6
2019-05-25T09:27:15.897Z,10.8
2019-05-25T09:33:15.701Z,11.8
2019-05-25T09:36:15.317Z,11.7
2019-05-25T09:39:15.874Z,10.9
2019-05-25T09:42:15.645Z,11.3
2019-05-25T09:45:16.170Z,10.8
2019-05-25T09:48:15.808Z,10.9
2019-05-25T09:51:15.933Z,10.6
2019-05-25T09:54:15.962Z,10.4
2019-05-25T09:57:15.464Z,10.2
2019-05-25T10:00:16.551Z,9.9
2019-05-25T10:03:16.261Z,9.9
2019-05-25T10:06:16.026Z,9.8
2019-05-25T10:09:16.000Z,9.4
2019-05-25T10:12:25.032Z,9.7
2019-05-25T10:15:21.279Z,9.6
2019-05-25T10:18:15.570Z,9.0
2019-05-25T10:21:16.032Z,9.2
2019-05-25T10:24:15.771Z,9.5
2019-05-25T10:27:16.199Z,9.4
2019-05-25T10:30:16.250Z,9.4
2019-05-25T10:33:16.257Z,9.2
2019-05-25T10:36:15.634Z,9.3
2019-05-25T10:39:15.513Z,9.6
2019-05-25T10:42:16.219Z,9.7
2019-05-25T10:45:15.472Z,9.5
2019-05-25T10:48:15.386Z,9.3
2019-05-25T10:51:16.047Z,9.3
2019-05-25T10:54:15.480Z,9.5
2019-05-25T10:57:16.047Z,9.7
2019-05-25T11:00:15.927Z,9.6
2019-05-25T11:03:15.996Z,9.5
2019-05-25T11:06:15.745Z,9.4
2019-05-25T11:09:15.738Z,9.2
2019-05-25T11:12:15.410Z,9.1
2019-05-25T11:15:16.346Z,9.0
2019-05-25T11:18:15.436Z,9.4
2019-05-25T11:21:15.509Z,8.9
2019-05-25T11:24:15.466Z,9.7
2019-05-25T11:27:16.078Z,10.3
2019-05-25T11:30:15.849Z,10.5
2019-05-25T11:33:15.729Z,10.8
2019-05-25T11:36:15.527Z,10.9
2019-05-25T11:39:16.132Z,11.1
2019-05-25T11:42:15.900Z,11.7
2019-05-25T11:45:15.944Z,12.1
2019-05-25T11:48:15.370Z,12.5
2019-05-25T11:51:16.033Z,13.5
2019-05-25T11:54:15.913Z,14.0
2019-05-25T11:57:15.428Z,14.1
2019-05-25T12:00:24.969Z,14.7
2019-05-25T12:03:15.337Z,14.8
2019-05-25T12:06:16.051Z,15.3
2019-05-25T12:09:15.751Z,14.7
2019-05-25T12:12:15.652Z,15.1
2019-05-25T12:15:15.591Z,14.9
2019-05-25T12:18:15.361Z,15.3
2019-05-25T12:21:15.645Z,15.8
2019-05-25T12:24:15.769Z,15.7
2019-05-25T12:27:15.414Z,16.2
2019-05-25T12:30:15.540Z,16.2
2019-05-25T12:33:15.525Z,16.1
2019-05-25T12:36:15.689Z,15.6
2019-05-25T12:39:16.497Z,15.9
2019-05-25T12:42:16.208Z,15.9
2019-05-25T12:45:15.853Z,16.1
2019-05-25T12:48:15.214Z,16.2
2019-05-25T12:51:17.702Z,16.3
2019-05-25T12:54:15.815Z,16.4
2019-05-25T12:57:16.057Z,16.6
2019-05-25T13:00:16.510Z,17.0
2019-05-25T13:03:15.285Z,16.6
2019-05-25T13:06:18.232Z,16.3
2019-05-25T13:09:16.212Z,16.5
2019-05-25T13:12:15.248Z,16.9
2019-05-25T13:15:15.240Z,17.3
2019-05-25T13:18:15.391Z,17.0
2019-05-25T13:21:15.615Z,16.6
2019-05-25T13:24:14.969Z,17.2
2019-05-25T13:27:15.693Z,17.8
2019-05-25T13:30:20.433Z,17.3
2019-05-25T13:33:15.016Z,17.5
2019-05-25T13:36:15.646Z,17.5
2019-05-25T13:39:15.614Z,17.5
2019-05-25T13:42:15.274Z,17.8
2019-05-25T13:45:14.914Z,17.6
2019-05-25T13:48:15.548Z,17.7
2019-05-25T13:51:15.087Z,18.3
2019-05-25T13:54:15.692Z,18.2
2019-05-25T13:57:16.658Z,18.3
2019-05-25T14:00:15.308Z,18.2
2019-05-25T14:03:15.868Z,19.6
2019-05-25T14:06:14.884Z,18.9
2019-05-25T14:09:16.061Z,19.2
2019-05-25T14:12:15.888Z,19.5
2019-05-25T14:15:15.664Z,19.4
2019-05-25T14:18:15.584Z,19.9
2019-05-25T14:21:15.310Z,19.9
2019-05-25T14:24:15.884Z,20.4
2019-05-25T14:30:16.124Z,20.7
2019-05-25T14:33:15.427Z,20.6
2019-05-25T14:36:15.832Z,20.5
2019-05-25T14:39:17.236Z,20.4
2019-05-25T14:42:16.974Z,20.4
2019-05-25T14:45:14.983Z,21.2
2019-05-25T14:48:15.691Z,21.1
2019-05-25T14:51:15.479Z,21.0
2019-05-25T14:54:15.106Z,21.4
2019-05-25T14:57:15.752Z,22.0
2019-05-25T15:00:15.509Z,22.1
2019-05-25T15:03:15.391Z,22.0
2019-05-25T15:06:15.094Z,23.3
2019-05-25T15:09:15.938Z,22.3
2019-05-25T15:12:15.125Z,22.1
2019-05-25T15:15:15.795Z,23.2
2019-05-25T15:18:15.712Z,22.7
2019-05-25T15:21:15.419Z,22.7
2019-05-25T15:24:15.443Z,23.1
2019-05-25T15:27:15.255Z,22.5
2019-05-25T15:30:15.821Z,22.8
2019-05-25T15:33:15.591Z,22.6
2019-05-25T15:36:15.306Z,22.8
2019-05-25T15:39:15.109Z,22.8
2019-05-25T15:42:15.115Z,22.6
2019-05-25T15:45:15.695Z,22.9
2019-05-25T15:48:15.643Z,22.5
2019-05-25T15:51:15.459Z,22.1
2019-05-25T15:54:15.250Z,22.6
2019-05-25T15:57:15.162Z,22.8
2019-05-25T16:00:15.748Z,22.6
2019-05-25T16:03:15.003Z,22.7
2019-05-25T16:06:15.602Z,23.0
2019-05-25T16:09:15.509Z,23.0
2019-05-25T16:12:15.335Z,23.0
2019-05-25T16:15:14.974Z,23.3
2019-05-25T16:18:15.571Z,23.4
2019-05-25T16:21:15.366Z,23.6
2019-05-25T16:24:15.159Z,24.0
2019-05-25T16:27:15.077Z,23.8
2019-05-25T16:30:15.853Z,23.8
2019-05-25T16:33:15.544Z,23.4
2019-05-25T16:36:15.349Z,23.4
2019-05-25T16:39:15.061Z,23.5
2019-05-25T16:42:15.893Z,24.0
2019-05-25T16:45:15.614Z,24.1
2019-05-25T16:48:15.511Z,24.9
2019-05-25T16:51:15.165Z,25.5
2019-05-25T16:54:14.923Z,25.8
2019-05-25T16:57:15.779Z,25.7
2019-05-25T17:00:15.483Z,25.4
2019-05-25T17:03:27.519Z,26.2
2019-05-25T17:06:15.883Z,25.6
2019-05-25T17:09:15.565Z,25.6
2019-05-25T17:12:15.128Z,26.0
2019-05-25T17:15:15.950Z,26.1
2019-05-25T17:18:15.056Z,26.4
2019-05-25T17:21:15.996Z,26.3
2019-05-25T17:24:15.823Z,26.9
2019-05-25T17:27:15.502Z,26.3
2019-05-25T17:30:15.153Z,26.6
2019-05-25T17:33:15.850Z,27.0
2019-05-25T17:36:15.642Z,26.6
2019-05-25T17:39:15.361Z,26.7
2019-05-25T17:42:15.263Z,26.9
2019-05-25T17:45:14.889Z,26.8
2019-05-25T17:48:15.579Z,26.6
2019-05-25T17:51:15.208Z,26.8
2019-05-25T17:54:15.830Z,26.8
2019-05-25T17:57:15.565Z,27.1
2019-05-25T18:00:15.561Z,26.9
2019-05-25T18:03:15.133Z,27.1
2019-05-25T18:06:15.710Z,26.6
2019-05-25T18:09:15.463Z,27.0
2019-05-25T18:12:15.193Z,26.5
2019-05-25T18:15:15.812Z,26.8
2019-05-25T18:18:15.702Z,26.7
2019-05-25T18:21:15.327Z,26.5
2019-05-25T18:24:15.559Z,26.6
2019-05-25T18:27:18.521Z,26.6
2019-05-25T18:30:15.020Z,26.9
2019-05-25T18:33:15.285Z,26.7
2019-05-25T18:36:15.043Z,27.1
2019-05-25T18:39:15.776Z,26.7
2019-05-25T18:42:15.372Z,26.8
2019-05-25T18:45:15.234Z,27.0
2019-05-25T18:48:15.045Z,27.4
2019-05-25T18:51:15.735Z,27.7
2019-05-25T18:54:15.406Z,27.8
2019-05-25T18:57:15.030Z,28.2
2019-05-25T19:00:15.641Z,28.1
2019-05-25T19:03:15.487Z,28.4
2019-05-25T19:06:15.040Z,28.6
2019-05-25T19:09:15.769Z,28.4
2019-05-25T19:12:15.898Z,29.1
2019-05-25T19:15:38.930Z,29.7
2019-05-25T19:18:25.157Z,30.1
2019-05-25T19:21:16.999Z,29.6
2019-05-25T19:24:17.830Z,30.0
2019-05-25T19:27:22.068Z,29.5
2019-05-25T19:30:15.283Z,30.3
2019-05-25T19:33:15.058Z,29.9
2019-05-25T19:36:15.547Z,30.1
2019-05-25T19:39:15.139Z,29.7
2019-05-25T19:42:15.955Z,31.2
2019-05-25T19:45:15.764Z,30.3
2019-05-25T19:48:15.405Z,30.6
2019-05-25T19:51:15.206Z,30.2
2019-05-25T20:03:15.598Z,30.7
2019-05-25T20:06:15.247Z,30.8
2019-05-25T20:09:23.190Z,31.4
2019-05-25T20:15:15.067Z,31.2
2019-05-25T20:18:15.888Z,31.7
2019-05-25T20:21:15.640Z,32.0
2019-05-25T20:24:15.382Z,31.7
2019-05-25T20:27:15.974Z,31.6
2019-05-25T20:30:15.653Z,31.8
2019-05-25T20:33:26.995Z,31.4
2019-05-25T20:36:15.670Z,32.6
2019-05-25T20:39:15.266Z,31.9
2019-05-25T20:42:15.260Z,31.2
2019-05-25T20:45:16.615Z,31.4
2019-05-25T20:48:15.306Z,31.8
2019-05-25T20:51:15.826Z,32.1
2019-05-25T20:54:15.558Z,32.3
2019-05-25T20:57:15.067Z,32.3
2019-05-25T21:00:15.748Z,32.4
2019-05-25T21:03:15.302Z,33.5
2019-05-25T21:06:15.018Z,32.7
2019-05-25T21:09:15.597Z,32.3
2019-05-25T21:12:15.081Z,32.5
2019-05-25T21:15:15.701Z,32.1
2019-05-25T21:18:21.122Z,32.7
2019-05-25T21:21:16.174Z,32.5
2019-05-25T21:24:16.622Z,32.1
2019-05-25T21:27:16.641Z,32.6
2019-05-25T21:30:16.974Z,32.6
2019-05-25T21:33:15.393Z,32.8
2019-05-25T21:36:16.454Z,32.9
2019-05-25T21:39:15.546Z,32.6
2019-05-25T21:42:15.267Z,32.6
2019-05-25T21:45:15.892Z,32.9
2019-05-25T21:48:15.474Z,33.3
2019-05-25T21:51:28.111Z,33.4
2019-05-25T21:54:26.354Z,33.1
2019-05-25T21:57:15.917Z,33.4
2019-05-25T22:00:15.437Z,33.8
2019-05-25T22:03:15.810Z,33.8
2019-05-25T22:06:24.166Z,33.5
2019-05-25T22:09:15.243Z,33.8
2019-05-25T22:12:15.294Z,33.6
2019-05-25T22:15:14.997Z,34.2
2019-05-25T22:18:15.721Z,34.2
2019-05-25T22:21:15.668Z,34.7
2019-05-25T22:24:15.163Z,34.8
2019-05-25T22:27:15.843Z,35.3
2019-05-25T22:30:15.395Z,34.9
2019-05-25T22:33:15.272Z,35.4
2019-05-25T22:36:15.562Z,35.0
2019-05-25T22:39:15.426Z,35.2
2019-05-25T22:42:15.810Z,35.7
2019-05-25T22:45:15.127Z,35.7
2019-05-25T22:48:15.565Z,35.7
2019-05-25T22:51:14.962Z,36.1
2019-05-25T22:54:15.362Z,35.9
2019-05-25T22:57:15.007Z,36.3
2019-05-25T23:00:20.664Z,36.9
2019-05-25T23:03:15.203Z,36.7
2019-05-25T23:06:15.176Z,38.3
2019-05-25T23:09:20.682Z,37.4
2019-05-25T23:12:15.685Z,37.4
2019-05-25T23:15:15.219Z,37.9
2019-05-25T23:18:15.747Z,38.0
2019-05-25T23:21:15.033Z,38.5
2019-05-25T23:24:15.793Z,39.0
2019-05-25T23:27:16.189Z,38.7
2019-05-25T23:30:15.296Z,39.1
2019-05-25T23:33:15.117Z,38.8
2019-05-25T23:36:15.859Z,38.6
2019-05-25T23:39:15.429Z,38.6
2019-05-25T23:42:15.787Z,39.2
2019-05-25T23:45:15.407Z,38.9
2019-05-25T23:48:15.568Z,39.0
2019-05-25T23:51:15.330Z,39.2
2019-05-25T23:54:14.945Z,39.5
2019-05-25T23:57:15.413Z,39.5
